sensor_id;sensor_type;location;lat;lon;timestamp;temperature;humidity
65460;DHT22;52058;49.822;6.754;2023-06-22T00:00:31;21.30;94.45
65460;DHT22;52058;49.822;6.754;2023-06-22T00:02:59;21.27;95.23
65460;DHT22;52058;49.822;6.754;2023-06-22T00:05:25;21.27;95.55
65460;DHT22;52058;49.822;6.754;2023-06-22T00:07:52;21.21;96.08
65460;DHT22;52058;49.822;6.754;2023-06-22T00:10:18;21.17;95.93
65460;DHT22;52058;49.822;6.754;2023-06-22T00:12:45;21.06;95.97
65460;DHT22;52058;49.822;6.754;2023-06-22T00:15:11;21.08;96.46
65460;DHT22;52058;49.822;6.754;2023-06-22T00:17:37;21.07;96.25
65460;DHT22;52058;49.822;6.754;2023-06-22T00:20:07;21.01;95.66
65460;DHT22;52058;49.822;6.754;2023-06-22T00:22:35;21.10;95.87
65460;DHT22;52058;49.822;6.754;2023-06-22T00:25:04;21.11;95.98
65460;DHT22;52058;49.822;6.754;2023-06-22T00:27:31;21.08;95.81
65460;DHT22;52058;49.822;6.754;2023-06-22T00:29:57;21.08;96.99
65460;DHT22;52058;49.822;6.754;2023-06-22T00:32:23;21.07;97.64
65460;DHT22;52058;49.822;6.754;2023-06-22T00:34:50;21.10;97.85
65460;DHT22;52058;49.822;6.754;2023-06-22T00:37:17;21.07;97.68
65460;DHT22;52058;49.822;6.754;2023-06-22T00:39:44;20.98;96.73
65460;DHT22;52058;49.822;6.754;2023-06-22T00:42:10;20.88;96.99
65460;DHT22;52058;49.822;6.754;2023-06-22T00:44:37;20.86;98.61
65460;DHT22;52058;49.822;6.754;2023-06-22T00:47:03;20.87;97.89
65460;DHT22;52058;49.822;6.754;2023-06-22T00:49:29;20.86;98.38
65460;DHT22;52058;49.822;6.754;2023-06-22T00:51:57;20.90;98.86
65460;DHT22;52058;49.822;6.754;2023-06-22T00:54:24;20.87;97.61
65460;DHT22;52058;49.822;6.754;2023-06-22T00:56:51;20.84;98.24
65460;DHT22;52058;49.822;6.754;2023-06-22T00:59:19;20.81;98.66
65460;DHT22;52058;49.822;6.754;2023-06-22T01:01:46;20.84;98.06
65460;DHT22;52058;49.822;6.754;2023-06-22T01:04:12;20.73;98.51
65460;DHT22;52058;49.822;6.754;2023-06-22T01:06:41;20.72;98.02
65460;DHT22;52058;49.822;6.754;2023-06-22T01:09:14;20.65;98.45
65460;DHT22;52058;49.822;6.754;2023-06-22T01:11:44;20.55;97.54
65460;DHT22;52058;49.822;6.754;2023-06-22T01:14:12;20.52;97.78
65460;DHT22;52058;49.822;6.754;2023-06-22T01:16:40;20.50;98.31
65460;DHT22;52058;49.822;6.754;2023-06-22T01:19:09;20.57;98.79
65460;DHT22;52058;49.822;6.754;2023-06-22T01:21:43;20.62;98.71
65460;DHT22;52058;49.822;6.754;2023-06-22T01:24:14;20.63;98.79
65460;DHT22;52058;49.822;6.754;2023-06-22T01:26:46;20.66;98.19
65460;DHT22;52058;49.822;6.754;2023-06-22T01:29:19;20.63;97.96
65460;DHT22;52058;49.822;6.754;2023-06-22T01:31:46;20.65;98.01
65460;DHT22;52058;49.822;6.754;2023-06-22T01:34:14;20.67;97.50
65460;DHT22;52058;49.822;6.754;2023-06-22T01:36:41;20.56;98.13
65460;DHT22;52058;49.822;6.754;2023-06-22T01:39:07;20.62;97.95
65460;DHT22;52058;49.822;6.754;2023-06-22T01:41:35;20.52;98.43
65460;DHT22;52058;49.822;6.754;2023-06-22T01:44:02;20.52;98.55
65460;DHT22;52058;49.822;6.754;2023-06-22T01:46:30;20.52;98.03
65460;DHT22;52058;49.822;6.754;2023-06-22T01:48:57;20.46;98.04
65460;DHT22;52058;49.822;6.754;2023-06-22T01:51:24;20.49;98.40
65460;DHT22;52058;49.822;6.754;2023-06-22T01:53:50;20.49;98.55
65460;DHT22;52058;49.822;6.754;2023-06-22T01:56:17;20.45;98.20
65460;DHT22;52058;49.822;6.754;2023-06-22T01:58:45;20.40;98.53
65460;DHT22;52058;49.822;6.754;2023-06-22T02:01:14;20.36;98.03
65460;DHT22;52058;49.822;6.754;2023-06-22T02:03:47;20.38;98.17
65460;DHT22;52058;49.822;6.754;2023-06-22T02:06:15;20.30;98.24
65460;DHT22;52058;49.822;6.754;2023-06-22T02:08:45;20.32;98.51
65460;DHT22;52058;49.822;6.754;2023-06-22T02:11:13;20.22;99.56
65460;DHT22;52058;49.822;6.754;2023-06-22T02:13:41;20.21;99.99
65460;DHT22;52058;49.822;6.754;2023-06-22T02:16:08;20.11;99.99
65460;DHT22;52058;49.822;6.754;2023-06-22T02:18:34;20.12;99.99
65460;DHT22;52058;49.822;6.754;2023-06-22T02:21:03;20.08;99.82
65460;DHT22;52058;49.822;6.754;2023-06-22T02:23:29;20.04;99.66
65460;DHT22;52058;49.822;6.754;2023-06-22T02:25:58;20.04;99.65
65460;DHT22;52058;49.822;6.754;2023-06-22T02:28:24;20.01;99.99
65460;DHT22;52058;49.822;6.754;2023-06-22T02:30:50;19.97;99.99
65460;DHT22;52058;49.822;6.754;2023-06-22T02:33:17;19.95;99.99
65460;DHT22;52058;49.822;6.754;2023-06-22T02:35:43;19.95;99.99
65460;DHT22;52058;49.822;6.754;2023-06-22T02:38:15;19.92;99.99
65460;DHT22;52058;49.822;6.754;2023-06-22T02:40:42;19.92;99.99
65460;DHT22;52058;49.822;6.754;2023-06-22T02:43:09;19.92;99.99
65460;DHT22;52058;49.822;6.754;2023-06-22T02:45:35;19.95;99.99
65460;DHT22;52058;49.822;6.754;2023-06-22T02:48:02;19.89;99.99
65460;DHT22;52058;49.822;6.754;2023-06-22T02:50:28;19.84;99.99
65460;DHT22;52058;49.822;6.754;2023-06-22T02:52:55;19.78;99.99
65460;DHT22;52058;49.822;6.754;2023-06-22T02:55:22;19.75;99.99
65460;DHT22;52058;49.822;6.754;2023-06-22T02:57:49;19.71;99.99
65460;DHT22;52058;49.822;6.754;2023-06-22T03:00:17;19.70;99.99
65460;DHT22;52058;49.822;6.754;2023-06-22T03:02:44;19.73;99.99
65460;DHT22;52058;49.822;6.754;2023-06-22T03:05:11;19.73;99.99
65460;DHT22;52058;49.822;6.754;2023-06-22T03:07:39;19.73;99.99
65460;DHT22;52058;49.822;6.754;2023-06-22T03:10:05;19.75;99.99
65460;DHT22;52058;49.822;6.754;2023-06-22T03:12:33;19.78;99.99
65460;DHT22;52058;49.822;6.754;2023-06-22T03:15:00;19.75;99.99
65460;DHT22;52058;49.822;6.754;2023-06-22T03:17:26;19.75;99.99
65460;DHT22;52058;49.822;6.754;2023-06-22T03:19:52;19.74;99.54
65460;DHT22;52058;49.822;6.754;2023-06-22T03:22:19;19.71;99.86
65460;DHT22;52058;49.822;6.754;2023-06-22T03:24:45;19.75;99.99
65460;DHT22;52058;49.822;6.754;2023-06-22T03:27:12;19.74;99.20
65460;DHT22;52058;49.822;6.754;2023-06-22T03:29:39;19.81;99.69
65460;DHT22;52058;49.822;6.754;2023-06-22T03:32:06;19.78;98.99
65460;DHT22;52058;49.822;6.754;2023-06-22T03:34:32;19.94;98.91
65460;DHT22;52058;49.822;6.754;2023-06-22T03:36:59;19.94;98.35
65460;DHT22;52058;49.822;6.754;2023-06-22T03:39:26;19.97;99.06
65460;DHT22;52058;49.822;6.754;2023-06-22T03:41:52;19.98;98.56
65460;DHT22;52058;49.822;6.754;2023-06-22T03:44:18;19.99;98.33
65460;DHT22;52058;49.822;6.754;2023-06-22T03:46:46;19.99;98.07
65460;DHT22;52058;49.822;6.754;2023-06-22T03:49:12;20.01;98.50
65460;DHT22;52058;49.822;6.754;2023-06-22T03:51:39;20.11;98.47
65460;DHT22;52058;49.822;6.754;2023-06-22T03:54:05;20.08;98.50
65460;DHT22;52058;49.822;6.754;2023-06-22T03:56:31;20.07;98.41
65460;DHT22;52058;49.822;6.754;2023-06-22T03:58:58;20.05;98.40
65460;DHT22;52058;49.822;6.754;2023-06-22T04:01:24;20.05;98.41
65460;DHT22;52058;49.822;6.754;2023-06-22T04:03:52;20.18;98.04
65460;DHT22;52058;49.822;6.754;2023-06-22T04:06:18;20.12;97.76
65460;DHT22;52058;49.822;6.754;2023-06-22T04:08:45;20.17;98.12
65460;DHT22;52058;49.822;6.754;2023-06-22T04:11:13;20.19;97.90
65460;DHT22;52058;49.822;6.754;2023-06-22T04:13:39;20.19;98.47
65460;DHT22;52058;49.822;6.754;2023-06-22T04:16:06;20.24;98.09
65460;DHT22;52058;49.822;6.754;2023-06-22T04:18:32;20.28;98.12
65460;DHT22;52058;49.822;6.754;2023-06-22T04:21:00;20.29;97.52
65460;DHT22;52058;49.822;6.754;2023-06-22T04:23:26;20.36;97.76
65460;DHT22;52058;49.822;6.754;2023-06-22T04:25:52;20.38;96.84
65460;DHT22;52058;49.822;6.754;2023-06-22T04:28:21;20.42;96.74
65460;DHT22;52058;49.822;6.754;2023-06-22T04:30:47;20.42;95.96
65460;DHT22;52058;49.822;6.754;2023-06-22T04:33:16;20.38;96.44
65460;DHT22;52058;49.822;6.754;2023-06-22T04:35:44;20.35;95.77
65460;DHT22;52058;49.822;6.754;2023-06-22T04:38:12;20.36;95.79
65460;DHT22;52058;49.822;6.754;2023-06-22T04:40:39;20.33;96.47
65460;DHT22;52058;49.822;6.754;2023-06-22T04:43:05;20.28;96.33
65460;DHT22;52058;49.822;6.754;2023-06-22T04:45:32;20.33;96.25
65460;DHT22;52058;49.822;6.754;2023-06-22T04:47:58;20.29;96.16
65460;DHT22;52058;49.822;6.754;2023-06-22T04:50:25;20.29;96.21
65460;DHT22;52058;49.822;6.754;2023-06-22T04:52:51;20.40;96.00
65460;DHT22;52058;49.822;6.754;2023-06-22T04:55:19;20.33;96.51
65460;DHT22;52058;49.822;6.754;2023-06-22T04:57:46;20.29;96.65
65460;DHT22;52058;49.822;6.754;2023-06-22T05:00:14;20.30;96.54
65460;DHT22;52058;49.822;6.754;2023-06-22T05:02:42;20.30;96.62
65460;DHT22;52058;49.822;6.754;2023-06-22T05:05:09;20.33;96.26
65460;DHT22;52058;49.822;6.754;2023-06-22T05:07:38;20.40;95.11
65460;DHT22;52058;49.822;6.754;2023-06-22T05:10:08;20.50;95.44
65460;DHT22;52058;49.822;6.754;2023-06-22T05:12:36;20.46;96.18
65460;DHT22;52058;49.822;6.754;2023-06-22T05:15:02;20.53;95.80
65460;DHT22;52058;49.822;6.754;2023-06-22T05:17:29;20.52;95.60
65460;DHT22;52058;49.822;6.754;2023-06-22T05:19:55;20.50;96.15
65460;DHT22;52058;49.822;6.754;2023-06-22T05:22:22;20.55;95.71
65460;DHT22;52058;49.822;6.754;2023-06-22T05:27:43;20.59;95.72
65460;DHT22;52058;49.822;6.754;2023-06-22T05:30:09;20.63;95.61
65460;DHT22;52058;49.822;6.754;2023-06-22T05:32:36;20.73;95.52
65460;DHT22;52058;49.822;6.754;2023-06-22T05:35:03;20.79;94.82
65460;DHT22;52058;49.822;6.754;2023-06-22T05:37:30;20.80;94.74
65460;DHT22;52058;49.822;6.754;2023-06-22T05:39:56;20.80;95.66
65460;DHT22;52058;49.822;6.754;2023-06-22T05:42:23;20.86;95.70
65460;DHT22;52058;49.822;6.754;2023-06-22T05:44:51;20.87;95.67
65460;DHT22;52058;49.822;6.754;2023-06-22T05:47:18;20.87;95.89
65460;DHT22;52058;49.822;6.754;2023-06-22T05:49:44;20.87;95.19
65460;DHT22;52058;49.822;6.754;2023-06-22T05:52:11;20.94;95.04
65460;DHT22;52058;49.822;6.754;2023-06-22T05:54:37;20.90;95.81
65460;DHT22;52058;49.822;6.754;2023-06-22T05:57:04;21.00;95.53
65460;DHT22;52058;49.822;6.754;2023-06-22T05:59:31;21.07;95.25
65460;DHT22;52058;49.822;6.754;2023-06-22T06:01:59;21.10;95.39
65460;DHT22;52058;49.822;6.754;2023-06-22T06:04:25;21.20;94.91
65460;DHT22;52058;49.822;6.754;2023-06-22T06:06:52;21.34;95.08
65460;DHT22;52058;49.822;6.754;2023-06-22T06:09:18;21.54;92.55
65460;DHT22;52058;49.822;6.754;2023-06-22T06:11:45;21.66;92.86
65460;DHT22;52058;49.822;6.754;2023-06-22T06:14:11;21.82;91.79
65460;DHT22;52058;49.822;6.754;2023-06-22T06:16:38;22.09;91.20
65460;DHT22;52058;49.822;6.754;2023-06-22T06:19:06;22.30;89.79
65460;DHT22;52058;49.822;6.754;2023-06-22T06:21:32;22.47;89.33
65460;DHT22;52058;49.822;6.754;2023-06-22T06:23:59;22.47;89.53
65460;DHT22;52058;49.822;6.754;2023-06-22T06:26:26;22.55;88.57
65460;DHT22;52058;49.822;6.754;2023-06-22T06:28:55;22.60;88.60
65460;DHT22;52058;49.822;6.754;2023-06-22T06:31:21;22.68;88.14
65460;DHT22;52058;49.822;6.754;2023-06-22T06:33:48;22.76;88.13
65460;DHT22;52058;49.822;6.754;2023-06-22T06:36:16;22.88;88.26
65460;DHT22;52058;49.822;6.754;2023-06-22T06:38:42;22.95;88.15
65460;DHT22;52058;49.822;6.754;2023-06-22T06:41:08;22.96;87.72
65460;DHT22;52058;49.822;6.754;2023-06-22T06:43:35;23.01;87.24
65460;DHT22;52058;49.822;6.754;2023-06-22T06:46:01;23.16;86.22
65460;DHT22;52058;49.822;6.754;2023-06-22T06:48:28;23.23;86.45
65460;DHT22;52058;49.822;6.754;2023-06-22T06:50:55;23.34;86.65
65460;DHT22;52058;49.822;6.754;2023-06-22T06:53:23;23.46;85.31
65460;DHT22;52058;49.822;6.754;2023-06-22T06:55:49;23.46;85.68
65460;DHT22;52058;49.822;6.754;2023-06-22T06:58:16;23.51;84.43
65460;DHT22;52058;49.822;6.754;2023-06-22T07:00:42;23.47;85.32
65460;DHT22;52058;49.822;6.754;2023-06-22T07:03:09;23.53;85.60
65460;DHT22;52058;49.822;6.754;2023-06-22T07:05:36;23.56;85.10
65460;DHT22;52058;49.822;6.754;2023-06-22T07:08:03;23.69;85.40
65460;DHT22;52058;49.822;6.754;2023-06-22T07:10:31;23.70;85.59
65460;DHT22;52058;49.822;6.754;2023-06-22T07:12:58;23.74;85.02
65460;DHT22;52058;49.822;6.754;2023-06-22T07:15:24;23.75;85.34
65460;DHT22;52058;49.822;6.754;2023-06-22T07:17:51;23.82;85.24
65460;DHT22;52058;49.822;6.754;2023-06-22T07:20:17;23.82;84.53
65460;DHT22;52058;49.822;6.754;2023-06-22T07:22:44;23.84;83.67
65460;DHT22;52058;49.822;6.754;2023-06-22T07:25:11;23.93;85.33
65460;DHT22;52058;49.822;6.754;2023-06-22T07:27:44;23.98;83.65
65460;DHT22;52058;49.822;6.754;2023-06-22T07:30:11;24.02;84.51
65460;DHT22;52058;49.822;6.754;2023-06-22T07:32:40;24.15;83.96
65460;DHT22;52058;49.822;6.754;2023-06-22T07:35:07;24.18;84.59
65460;DHT22;52058;49.822;6.754;2023-06-22T07:37:34;24.14;84.10
65460;DHT22;52058;49.822;6.754;2023-06-22T07:40:00;24.21;84.23
65460;DHT22;52058;49.822;6.754;2023-06-22T07:42:31;24.28;83.81
65460;DHT22;52058;49.822;6.754;2023-06-22T07:44:59;24.48;84.00
65460;DHT22;52058;49.822;6.754;2023-06-22T07:47:26;24.51;83.29
65460;DHT22;52058;49.822;6.754;2023-06-22T07:49:53;24.57;82.60
65460;DHT22;52058;49.822;6.754;2023-06-22T07:52:22;24.66;82.73
65460;DHT22;52058;49.822;6.754;2023-06-22T07:54:49;24.80;81.10
65460;DHT22;52058;49.822;6.754;2023-06-22T07:57:15;25.03;81.49
65460;DHT22;52058;49.822;6.754;2023-06-22T07:59:41;25.18;81.00
65460;DHT22;52058;49.822;6.754;2023-06-22T08:02:09;25.31;80.79
65460;DHT22;52058;49.822;6.754;2023-06-22T08:04:35;25.41;80.69
65460;DHT22;52058;49.822;6.754;2023-06-22T08:07:02;25.54;80.07
65460;DHT22;52058;49.822;6.754;2023-06-22T08:09:29;25.66;79.02
65460;DHT22;52058;49.822;6.754;2023-06-22T08:11:56;25.82;78.99
65460;DHT22;52058;49.822;6.754;2023-06-22T08:14:23;25.92;78.40
65460;DHT22;52058;49.822;6.754;2023-06-22T08:16:49;26.06;78.23
65460;DHT22;52058;49.822;6.754;2023-06-22T08:19:17;26.17;77.21
65460;DHT22;52058;49.822;6.754;2023-06-22T08:21:44;26.17;76.28
65460;DHT22;52058;49.822;6.754;2023-06-22T08:24:10;26.26;77.58
65460;DHT22;52058;49.822;6.754;2023-06-22T08:26:36;26.30;77.15
65460;DHT22;52058;49.822;6.754;2023-06-22T08:29:03;26.34;76.90
65460;DHT22;52058;49.822;6.754;2023-06-22T08:31:30;26.36;77.14
65460;DHT22;52058;49.822;6.754;2023-06-22T08:33:57;26.27;76.82
65460;DHT22;52058;49.822;6.754;2023-06-22T08:36:24;26.20;76.84
65460;DHT22;52058;49.822;6.754;2023-06-22T08:38:55;26.13;77.09
65460;DHT22;52058;49.822;6.754;2023-06-22T08:41:23;25.97;76.74
65460;DHT22;52058;49.822;6.754;2023-06-22T08:43:51;25.69;78.18
65460;DHT22;52058;49.822;6.754;2023-06-22T08:46:17;25.49;78.50
65460;DHT22;52058;49.822;6.754;2023-06-22T08:48:48;25.41;77.94
65460;DHT22;52058;49.822;6.754;2023-06-22T08:51:15;25.33;79.26
65460;DHT22;52058;49.822;6.754;2023-06-22T08:53:43;25.31;79.26
65460;DHT22;52058;49.822;6.754;2023-06-22T08:56:10;25.25;79.26
65460;DHT22;52058;49.822;6.754;2023-06-22T08:58:36;25.14;78.99
65460;DHT22;52058;49.822;6.754;2023-06-22T09:01:03;25.25;78.83
65460;DHT22;52058;49.822;6.754;2023-06-22T09:03:29;25.37;78.71
65460;DHT22;52058;49.822;6.754;2023-06-22T09:05:57;25.57;78.77
65460;DHT22;52058;49.822;6.754;2023-06-22T09:08:24;25.54;78.19
65460;DHT22;52058;49.822;6.754;2023-06-22T09:10:51;25.41;78.51
65460;DHT22;52058;49.822;6.754;2023-06-22T09:13:18;25.30;79.16
65460;DHT22;52058;49.822;6.754;2023-06-22T09:15:44;25.11;79.60
65460;DHT22;52058;49.822;6.754;2023-06-22T09:18:11;24.94;80.60
65460;DHT22;52058;49.822;6.754;2023-06-22T09:20:37;24.72;84.90
65460;DHT22;52058;49.822;6.754;2023-06-22T09:23:03;23.97;90.01
65460;DHT22;52058;49.822;6.754;2023-06-22T09:25:30;23.53;93.55
65460;DHT22;52058;49.822;6.754;2023-06-22T09:27:58;23.29;94.75
65460;DHT22;52058;49.822;6.754;2023-06-22T09:30:25;23.02;95.78
65460;DHT22;52058;49.822;6.754;2023-06-22T09:32:51;22.96;96.00
65460;DHT22;52058;49.822;6.754;2023-06-22T09:35:19;22.87;96.65
65460;DHT22;52058;49.822;6.754;2023-06-22T09:37:45;23.02;96.95
65460;DHT22;52058;49.822;6.754;2023-06-22T09:40:12;23.19;97.05
65460;DHT22;52058;49.822;6.754;2023-06-22T09:42:41;23.49;96.75
65460;DHT22;52058;49.822;6.754;2023-06-22T09:45:09;23.75;96.29
65460;DHT22;52058;49.822;6.754;2023-06-22T09:47:35;24.07;96.71
65460;DHT22;52058;49.822;6.754;2023-06-22T09:50:02;24.38;97.75
65460;DHT22;52058;49.822;6.754;2023-06-22T09:52:29;24.53;95.35
65460;DHT22;52058;49.822;6.754;2023-06-22T09:54:55;24.67;94.61
65460;DHT22;52058;49.822;6.754;2023-06-22T09:57:21;24.72;93.86
65460;DHT22;52058;49.822;6.754;2023-06-22T09:59:48;24.51;94.18
65460;DHT22;52058;49.822;6.754;2023-06-22T10:02:15;24.38;95.83
65460;DHT22;52058;49.822;6.754;2023-06-22T10:04:42;24.39;95.53
65460;DHT22;52058;49.822;6.754;2023-06-22T10:07:08;24.42;94.02
65460;DHT22;52058;49.822;6.754;2023-06-22T10:09:35;24.46;91.40
65460;DHT22;52058;49.822;6.754;2023-06-22T10:12:01;24.63;91.82
65460;DHT22;52058;49.822;6.754;2023-06-22T10:14:27;24.87;92.77
65460;DHT22;52058;49.822;6.754;2023-06-22T10:16:54;25.10;89.55
65460;DHT22;52058;49.822;6.754;2023-06-22T10:19:22;25.39;90.53
65460;DHT22;52058;49.822;6.754;2023-06-22T10:21:49;25.58;85.57
65460;DHT22;52058;49.822;6.754;2023-06-22T10:24:15;25.73;86.72
65460;DHT22;52058;49.822;6.754;2023-06-22T10:26:41;25.97;87.17
65460;DHT22;52058;49.822;6.754;2023-06-22T10:29:08;26.09;85.73
65460;DHT22;52058;49.822;6.754;2023-06-22T10:31:34;26.13;84.93
65460;DHT22;52058;49.822;6.754;2023-06-22T10:34:00;26.29;83.70
65460;DHT22;52058;49.822;6.754;2023-06-22T10:36:28;26.47;81.30
65460;DHT22;52058;49.822;6.754;2023-06-22T10:38:55;26.78;82.96
65460;DHT22;52058;49.822;6.754;2023-06-22T10:41:23;26.87;81.16
65460;DHT22;52058;49.822;6.754;2023-06-22T10:43:50;26.71;80.04
65460;DHT22;52058;49.822;6.754;2023-06-22T10:46:16;26.80;81.28
65460;DHT22;52058;49.822;6.754;2023-06-22T10:48:42;26.88;80.68
65460;DHT22;52058;49.822;6.754;2023-06-22T10:51:09;26.84;79.97
65460;DHT22;52058;49.822;6.754;2023-06-22T10:53:36;26.80;80.90
65460;DHT22;52058;49.822;6.754;2023-06-22T10:56:03;26.81;80.36
65460;DHT22;52058;49.822;6.754;2023-06-22T10:58:29;26.91;79.89
65460;DHT22;52058;49.822;6.754;2023-06-22T11:00:56;27.09;78.08
65460;DHT22;52058;49.822;6.754;2023-06-22T11:03:24;27.33;77.83
65460;DHT22;52058;49.822;6.754;2023-06-22T11:05:50;27.46;78.71
65460;DHT22;52058;49.822;6.754;2023-06-22T11:08:16;27.64;78.41
65460;DHT22;52058;49.822;6.754;2023-06-22T11:10:44;27.63;77.25
65460;DHT22;52058;49.822;6.754;2023-06-22T11:13:11;27.50;76.33
65460;DHT22;52058;49.822;6.754;2023-06-22T11:15:37;27.56;77.63
65460;DHT22;52058;49.822;6.754;2023-06-22T11:18:04;27.39;75.09
65460;DHT22;52058;49.822;6.754;2023-06-22T11:20:32;27.38;75.94
65460;DHT22;52058;49.822;6.754;2023-06-22T11:22:59;27.46;74.79
65460;DHT22;52058;49.822;6.754;2023-06-22T11:25:26;27.73;75.76
65460;DHT22;52058;49.822;6.754;2023-06-22T11:27:55;27.94;75.41
65460;DHT22;52058;49.822;6.754;2023-06-22T11:30:21;28.24;75.00
65460;DHT22;52058;49.822;6.754;2023-06-22T11:32:48;28.62;74.75
65460;DHT22;52058;49.822;6.754;2023-06-22T11:35:14;28.72;72.54
65460;DHT22;52058;49.822;6.754;2023-06-22T11:37:42;28.83;73.87
65460;DHT22;52058;49.822;6.754;2023-06-22T11:40:09;28.75;74.03
65460;DHT22;52058;49.822;6.754;2023-06-22T11:42:36;29.00;73.46
65460;DHT22;52058;49.822;6.754;2023-06-22T11:45:04;29.00;72.94
65460;DHT22;52058;49.822;6.754;2023-06-22T11:47:31;28.72;74.46
65460;DHT22;52058;49.822;6.754;2023-06-22T11:49:58;28.39;74.79
65460;DHT22;52058;49.822;6.754;2023-06-22T11:52:24;28.31;74.81
65460;DHT22;52058;49.822;6.754;2023-06-22T11:54:52;28.09;73.90
65460;DHT22;52058;49.822;6.754;2023-06-22T11:57:18;28.09;74.46
65460;DHT22;52058;49.822;6.754;2023-06-22T11:59:45;28.02;75.17
65460;DHT22;52058;49.822;6.754;2023-06-22T12:02:12;28.00;75.26
65460;DHT22;52058;49.822;6.754;2023-06-22T12:04:39;27.93;74.98
65460;DHT22;52058;49.822;6.754;2023-06-22T12:07:05;27.86;75.16
65460;DHT22;52058;49.822;6.754;2023-06-22T12:09:32;27.98;74.74
65460;DHT22;52058;49.822;6.754;2023-06-22T12:11:58;28.07;74.66
65460;DHT22;52058;49.822;6.754;2023-06-22T12:14:24;28.17;74.71
65460;DHT22;52058;49.822;6.754;2023-06-22T12:16:51;28.37;74.98
65460;DHT22;52058;49.822;6.754;2023-06-22T12:19:18;28.37;74.04
65460;DHT22;52058;49.822;6.754;2023-06-22T12:21:45;28.52;74.80
65460;DHT22;52058;49.822;6.754;2023-06-22T12:24:11;28.65;74.35
65460;DHT22;52058;49.822;6.754;2023-06-22T12:26:38;28.97;74.00
65460;DHT22;52058;49.822;6.754;2023-06-22T12:29:04;28.97;72.43
65460;DHT22;52058;49.822;6.754;2023-06-22T12:31:30;29.45;72.59
65460;DHT22;52058;49.822;6.754;2023-06-22T12:33:57;29.62;71.43
65460;DHT22;52058;49.822;6.754;2023-06-22T12:36:24;29.88;70.73
65460;DHT22;52058;49.822;6.754;2023-06-22T12:38:51;29.75;70.74
65460;DHT22;52058;49.822;6.754;2023-06-22T12:41:18;29.83;71.09
65460;DHT22;52058;49.822;6.754;2023-06-22T12:43:44;29.98;71.06
65460;DHT22;52058;49.822;6.754;2023-06-22T12:46:10;30.17;70.29
65460;DHT22;52058;49.822;6.754;2023-06-22T12:48:37;30.29;69.22
65460;DHT22;52058;49.822;6.754;2023-06-22T12:51:07;30.54;68.37
65460;DHT22;52058;49.822;6.754;2023-06-22T12:53:35;30.88;67.23
65460;DHT22;52058;49.822;6.754;2023-06-22T12:56:01;30.94;67.39
65460;DHT22;52058;49.822;6.754;2023-06-22T12:58:28;30.67;67.59
65460;DHT22;52058;49.822;6.754;2023-06-22T13:00:54;30.54;68.57
65460;DHT22;52058;49.822;6.754;2023-06-22T13:03:21;30.41;68.62
65460;DHT22;52058;49.822;6.754;2023-06-22T13:05:49;30.22;69.47
65460;DHT22;52058;49.822;6.754;2023-06-22T13:08:15;30.12;67.97
65460;DHT22;52058;49.822;6.754;2023-06-22T13:10:43;29.82;69.91
65460;DHT22;52058;49.822;6.754;2023-06-22T13:13:09;29.55;69.41
65460;DHT22;52058;49.822;6.754;2023-06-22T13:15:36;29.13;69.78
65460;DHT22;52058;49.822;6.754;2023-06-22T13:18:02;29.03;69.25
65460;DHT22;52058;49.822;6.754;2023-06-22T13:20:28;28.77;71.34
65460;DHT22;52058;49.822;6.754;2023-06-22T13:22:55;28.62;68.73
65460;DHT22;52058;49.822;6.754;2023-06-22T13:25:22;28.35;73.18
65460;DHT22;52058;49.822;6.754;2023-06-22T13:27:52;27.60;77.09
65460;DHT22;52058;49.822;6.754;2023-06-22T13:30:19;26.85;78.41
65460;DHT22;52058;49.822;6.754;2023-06-22T13:32:45;26.24;81.49
65460;DHT22;52058;49.822;6.754;2023-06-22T13:35:12;24.49;90.24
65460;DHT22;52058;49.822;6.754;2023-06-22T13:37:38;20.24;94.05
65460;DHT22;52058;49.822;6.754;2023-06-22T13:40:05;19.59;94.51
65460;DHT22;52058;49.822;6.754;2023-06-22T13:42:32;19.82;94.75
65460;DHT22;52058;49.822;6.754;2023-06-22T13:44:59;20.14;94.95
65460;DHT22;52058;49.822;6.754;2023-06-22T14:55:41;22.16;96.13
65460;DHT22;52058;49.822;6.754;2023-06-22T14:58:09;22.27;96.42
65460;DHT22;52058;49.822;6.754;2023-06-22T15:42:09;30.90;70.03
65460;DHT22;52058;49.822;6.754;2023-06-22T15:44:35;31.26;68.06
65460;DHT22;52058;49.822;6.754;2023-06-22T15:47:02;32.01;65.80
65460;DHT22;52058;49.822;6.754;2023-06-22T15:49:28;32.45;63.81
65460;DHT22;52058;49.822;6.754;2023-06-22T15:51:55;32.48;66.21
65460;DHT22;52058;49.822;6.754;2023-06-22T15:54:21;30.84;64.50
65460;DHT22;52058;49.822;6.754;2023-06-22T15:56:47;30.82;68.03
65460;DHT22;52058;49.822;6.754;2023-06-22T15:59:15;29.75;67.24
65460;DHT22;52058;49.822;6.754;2023-06-22T16:01:41;28.62;69.53
65460;DHT22;52058;49.822;6.754;2023-06-22T16:04:08;28.08;73.87
65460;DHT22;52058;49.822;6.754;2023-06-22T16:06:34;27.66;71.17
65460;DHT22;52058;49.822;6.754;2023-06-22T16:09:01;28.22;71.79
65460;DHT22;52058;49.822;6.754;2023-06-22T16:11:28;29.47;68.76
65460;DHT22;52058;49.822;6.754;2023-06-22T16:13:55;29.65;66.31
65460;DHT22;52058;49.822;6.754;2023-06-22T16:16:22;28.44;69.38
65460;DHT22;52058;49.822;6.754;2023-06-22T16:18:49;28.12;70.04
65460;DHT22;52058;49.822;6.754;2023-06-22T16:21:15;27.91;70.32
65460;DHT22;52058;49.822;6.754;2023-06-22T16:23:42;30.02;66.34
65460;DHT22;52058;49.822;6.754;2023-06-22T16:26:08;30.33;63.42
65460;DHT22;52058;49.822;6.754;2023-06-22T16:28:35;29.68;64.00
65460;DHT22;52058;49.822;6.754;2023-06-22T16:31:01;27.90;67.14
65460;DHT22;52058;49.822;6.754;2023-06-22T16:33:29;28.34;68.43
65460;DHT22;52058;49.822;6.754;2023-06-22T16:35:55;30.32;63.46
65460;DHT22;52058;49.822;6.754;2023-06-22T16:38:22;29.07;65.39
65460;DHT22;52058;49.822;6.754;2023-06-22T16:40:48;30.23;63.83
65460;DHT22;52058;49.822;6.754;2023-06-22T16:43:14;32.04;59.68
65460;DHT22;52058;49.822;6.754;2023-06-22T16:45:41;32.61;58.89
65460;DHT22;52058;49.822;6.754;2023-06-22T16:48:07;32.92;56.77
65460;DHT22;52058;49.822;6.754;2023-06-22T16:50:35;33.40;56.36
65460;DHT22;52058;49.822;6.754;2023-06-22T16:53:02;33.67;56.06
65460;DHT22;52058;49.822;6.754;2023-06-22T16:55:28;30.10;61.65
65460;DHT22;52058;49.822;6.754;2023-06-22T16:57:55;28.55;65.06
65460;DHT22;52058;49.822;6.754;2023-06-22T17:00:22;27.66;66.21
65460;DHT22;52058;49.822;6.754;2023-06-22T17:02:49;27.47;68.11
65460;DHT22;52058;49.822;6.754;2023-06-22T17:05:16;26.57;69.73
65460;DHT22;52058;49.822;6.754;2023-06-22T17:07:45;25.90;71.37
65460;DHT22;52058;49.822;6.754;2023-06-22T17:10:13;25.41;72.87
65460;DHT22;52058;49.822;6.754;2023-06-22T17:12:40;25.10;73.40
65460;DHT22;52058;49.822;6.754;2023-06-22T17:15:07;24.79;75.23
65460;DHT22;52058;49.822;6.754;2023-06-22T17:17:34;24.62;75.32
65460;DHT22;52058;49.822;6.754;2023-06-22T17:20:02;24.48;75.93